Time;durP1;ratioP1;P1;durP2;ratioP2;P2;SDS_P1;SDS_P2;PMS_P1;PMS_P2;Temp;Humidity;BMP_temperature;BMP_pressure;BME280_temperature;BME280_humidity;BME280_pressure;Samples;Min_cycle;Max_cycle;Signal;HPM_P1;HPM_P2
2021/05/06 00:32:11;;;;;;;2.73;2.40;;;6.40;44.60;52.70;159903.00;;;;5024922;28;20445;-80
2021/05/06 00:34:39;;;;;;;3.10;2.80;;;6.40;44.20;7.60;99921.00;;;;5040069;28;20676;-79
2021/05/06 00:37:07;;;;;;;2.47;2.10;;;6.50;44.50;7.70;99913.00;;;;5035988;28;20498;-78
2021/05/06 00:39:37;;;;;;;5.67;2.63;;;6.50;44.10;7.70;99924.00;;;;5028073;28;20489;-79
2021/05/06 01:01:52;;;;;;;2.63;2.07;;;6.70;42.20;7.80;99921.00;;;;5021863;28;20464;-78
2021/05/06 01:04:27;;;;;;;3.80;2.67;;;6.60;41.90;7.70;99918.00;;;;5034498;28;20456;-80
2021/05/06 01:07:14;;;;;;;3.00;2.70;;;6.70;42.00;7.70;99916.00;;;;5030377;28;20555;-80
2021/05/06 01:09:46;;;;;;;4.30;2.60;;;6.60;42.00;7.70;99923.00;;;;5058605;28;20492;-81
2021/05/06 01:12:14;;;;;;;3.43;2.57;;;6.70;41.90;7.70;99921.00;;;;5046844;28;20473;-79
2021/05/06 01:14:41;;;;;;;3.43;2.47;;;6.70;41.90;7.70;99916.00;;;;5024579;28;20503;-79
2021/05/06 01:17:09;;;;;;;4.03;2.53;;;6.70;41.90;7.80;99922.00;;;;5017896;28;20566;-79
2021/05/06 01:19:37;;;;;;;3.43;2.40;;;6.70;41.60;7.80;99917.00;;;;5023166;28;20456;-78
2021/05/06 01:22:05;;;;;;;2.20;2.00;;;6.70;41.10;7.80;99926.00;;;;5026784;28;20484;-79
2021/05/06 01:24:35;;;;;;;3.70;2.47;;;6.90;41.00;7.90;99930.00;;;;5025492;28;20453;-78
2021/05/06 01:27:06;;;;;;;2.23;2.03;;;6.80;40.50;7.90;99935.00;;;;5026420;28;20985;-78
2021/05/06 01:29:37;;;;;;;2.60;2.30;;;6.90;39.70;7.90;99935.00;;;;5025231;28;20455;-78
2021/05/06 01:32:16;;;;;;;3.93;2.40;;;6.90;39.80;8.00;99934.00;;;;5025324;28;20456;-79
2021/05/06 01:34:47;;;;;;;2.93;2.63;;;6.90;40.10;8.00;99926.00;;;;5023537;28;20452;-78
2021/05/06 01:37:19;;;;;;;3.30;2.30;;;6.90;40.70;7.90;99914.00;;;;5023340;28;20530;-78
2021/05/06 01:40:20;;;;;;;3.17;2.40;;;6.90;41.40;7.80;99915.00;;;;5023537;28;20463;-79
2021/05/06 01:42:50;;;;;;;3.20;2.90;;;6.80;43.20;7.80;99923.00;;;;5032234;28;20472;-79
2021/05/06 01:48:15;;;;;;;3.30;2.80;;;6.80;43.80;7.80;99912.00;;;;5042175;28;21552;-77
2021/05/06 01:51:10;;;;;;;3.13;2.80;;;6.70;44.50;7.70;99902.00;;;;5026784;28;20543;-78
2021/05/06 01:59:12;;;;;;;3.20;2.90;;;6.60;47.30;7.70;99910.00;;;;5002845;28;20452;-78
2021/05/06 02:01:40;;;;;;;3.70;3.13;;;6.60;46.10;7.70;99909.00;;;;5045201;28;20571;-80
2021/05/06 02:04:08;;;;;;;3.50;2.83;;;6.60;46.40;7.80;99911.00;;;;5027364;28;20994;-79
2021/05/06 02:06:36;;;;;;;3.20;2.80;;;6.70;46.00;7.80;99900.00;;;;5031399;28;20518;-78
2021/05/06 02:09:21;;;;;;;3.87;2.67;;;6.70;45.80;7.80;67980.00;;;;5039059;28;20461;-80
2021/05/06 02:11:48;;;;;;;3.67;2.80;;;6.70;46.20;7.80;99895.00;;;;5041394;28;20504;-79
2021/05/06 02:14:27;;;;;;;3.93;2.73;;;6.70;45.50;7.80;99900.00;;;;5046537;28;20826;-79
2021/05/06 02:16:55;;;;;;;3.40;2.80;;;6.70;45.10;7.80;99899.00;;;;5026967;28;21079;-79
2021/05/06 02:19:28;;;;;;;3.70;2.80;;;6.70;44.20;7.80;99895.00;;;;5026997;28;20499;-80
2021/05/06 02:21:56;;;;;;;3.47;2.50;;;6.70;44.20;7.80;99903.00;;;;5017794;28;20449;-79
2021/05/06 02:24:24;;;;;;;3.30;2.63;;;6.70;44.40;7.80;99905.00;;;;5030654;28;20544;-78
2021/05/06 02:26:53;;;;;;;3.40;2.73;;;6.70;44.40;7.90;99904.00;;;;5023397;28;20481;-79
2021/05/06 02:29:20;;;;;;;6.00;3.27;;;6.70;44.60;7.90;99906.00;;;;5025670;28;20499;-78
2021/05/06 02:31:47;;;;;;;4.07;2.50;;;6.80;44.90;7.80;99886.00;;;;5024103;28;20492;-79
2021/05/06 02:34:15;;;;;;;3.20;2.73;;;6.70;45.00;7.80;99871.00;;;;5030124;28;20461;-78
2021/05/06 02:36:42;;;;;;;3.47;3.13;;;6.60;44.80;7.70;99892.00;;;;5048151;28;20552;-80
2021/05/06 02:39:10;;;;;;;4.70;3.10;;;6.60;45.20;7.70;99877.00;;;;5027595;28;20461;-79
2021/05/06 02:41:38;;;;;;;3.50;3.20;;;6.50;45.10;7.60;99876.00;;;;5027973;28;21032;-79
2021/05/06 02:44:06;;;;;;;3.20;2.90;;;6.50;45.10;7.60;99869.00;;;;5038160;28;20552;-78
2021/05/06 02:46:34;;;;;;;3.73;2.80;;;6.50;45.60;7.60;99870.00;;;;5019214;28;20455;-78
2021/05/06 02:49:02;;;;;;;6.97;3.07;;;6.50;45.70;7.60;99875.00;;;;5028727;28;20476;-80
2021/05/06 02:51:32;;;;;;;9.13;3.50;;;6.50;46.00;7.70;99888.00;;;;5028339;28;20457;-78
2021/05/06 02:54:01;;;;;;;4.43;2.80;;;6.50;46.00;7.70;99873.00;;;;5044152;28;20457;-78
2021/05/06 02:56:34;;;;;;;3.43;2.50;;;6.60;45.70;7.70;99856.00;;;;5028352;28;20453;-79
2021/05/06 02:59:16;;;;;;;3.30;2.77;;;6.50;45.10;7.60;99859.00;;;;5037933;28;20563;-81
2021/05/06 03:04:30;;;;;;;4.07;2.70;;;6.40;45.00;7.50;99861.00;;;;5057250;28;20440;-79
2021/05/06 03:07:00;;;;;;;4.03;3.00;;;6.40;45.10;7.40;99858.00;;;;5050277;28;20484;-78
2021/05/06 03:09:39;;;;;;;3.17;2.70;;;6.30;45.80;7.30;99857.00;;;;5042015;28;20451;-80
2021/05/06 03:12:21;;;;;;;2.97;2.67;;;6.20;46.30;7.20;99853.00;;;;5050785;28;20428;-80
2021/05/06 03:23:02;;;;;;;4.97;2.63;;;6.00;47.40;7.10;99864.00;;;;5045878;28;20461;-78
2021/05/06 03:25:31;;;;;;;4.27;2.97;;;6.10;47.20;7.10;99852.00;;;;5028660;28;20966;-78
2021/05/06 03:28:02;;;;;;;3.80;2.80;;;6.00;48.10;7.10;99855.00;;;;5018734;28;20542;-79
2021/05/06 03:30:59;;;;;;;5.00;2.93;;;6.00;47.30;7.10;99855.00;;;;5044774;28;20555;-78
2021/05/06 03:42:03;;;;;;;5.53;3.30;;;6.10;46.90;7.20;99846.00;;;;5020859;28;20950;-78
2021/05/06 03:44:52;;;;;;;4.87;2.93;;;6.10;47.00;7.10;99844.00;;;;5037977;28;21239;-78
2021/05/06 03:48:03;;;;;;;3.33;2.57;;;6.10;47.20;7.20;99848.00;;;;5058233;28;20485;-78
2021/05/06 03:51:06;;;;;;;4.57;2.80;;;6.10;47.10;7.10;99847.00;;;;5040872;28;20449;-78
2021/05/06 04:16:14;;;;;;;4.90;3.27;;;6.30;46.40;7.60;99838.00;;;;5016594;28;20482;-78
2021/05/06 04:18:51;;;;;;;5.87;3.03;;;6.40;46.20;7.60;99843.00;;;;5042129;28;20549;-78
2021/05/06 04:21:33;;;;;;;3.73;3.13;;;6.40;45.90;7.60;99840.00;;;;5047684;28;20456;-79
2021/05/06 04:26:56;;;;;;;4.93;3.70;;;6.40;45.20;7.70;99847.00;;;;5028294;28;20465;-78
2021/05/06 04:37:46;;;;;;;3.93;2.90;;;6.40;44.10;7.70;99849.00;;;;5038543;28;20523;-79
2021/05/06 04:40:19;;;;;;;3.20;2.90;;;6.40;43.90;7.80;99847.00;;;;5040787;28;20461;-79
2021/05/06 04:43:20;;;;;;;5.43;3.50;;;6.50;43.80;7.90;99855.00;;;;5055398;28;20428;-80
2021/05/06 04:46:14;;;;;;;3.97;3.27;;;6.50;44.00;8.00;99852.00;;;;5063766;28;20476;-79
2021/05/06 04:54:25;;;;;;;5.30;3.90;;;6.70;42.80;8.10;99846.00;;;;5049444;28;20445;-80
2021/05/06 05:05:23;;;;;;;4.10;3.47;;;6.80;39.80;8.30;99842.00;;;;5045306;28;20457;-80
2021/05/06 05:07:55;;;;;;;5.50;3.57;;;6.90;40.20;8.30;99843.00;;;;5049633;28;20511;-80
2021/05/06 05:10:34;;;;;;;3.37;3.07;;;6.90;40.20;8.30;99834.00;;;;5045281;28;20520;-79
2021/05/06 05:13:18;;;;;;;4.53;3.73;;;6.90;39.30;8.30;99826.00;;;;5048261;28;20448;-80
2021/05/06 05:18:52;;;;;;;5.80;3.63;;;6.80;39.90;8.30;99849.00;;;;5054954;28;20477;-78
2021/05/06 05:23:20;;;;;;;4.63;3.10;;;6.90;40.50;8.50;99834.00;;;;5049089;28;20452;-79
2021/05/06 05:24:16;;;;;;;6.00;3.30;;;7.00;40.60;8.70;99864.00;;;;5050762;28;20522;-78
2021/05/06 05:26:44;;;;;;;5.70;3.50;;;7.10;40.00;8.80;99843.00;;;;5039559;28;20543;-79
2021/05/06 05:29:12;;;;;;;5.90;3.20;;;7.20;38.50;8.80;99831.00;;;;5038100;28;20483;-78
2021/05/06 05:31:39;;;;;;;5.63;3.67;;;7.20;37.50;8.70;99837.00;;;;5037103;28;20449;-78
2021/05/06 05:34:18;;;;;;;6.00;4.30;;;7.10;37.20;8.70;99828.00;;;;5046706;28;20471;-79
2021/05/06 05:36:48;;;;;;;6.03;3.83;;;7.10;38.10;8.70;99841.00;;;;5039092;28;20464;-78
2021/05/06 05:39:21;;;;;;;6.40;3.90;;;7.10;37.50;8.70;99840.00;;;;5036904;28;20468;-79
2021/05/06 05:45:09;;;;;;;6.37;4.20;;;7.20;36.80;8.80;99846.00;;;;5034786;28;20468;-79
2021/05/06 05:55:56;;;;;;;5.07;4.57;;;7.30;35.20;8.90;99837.00;;;;5039937;28;20440;-78
2021/05/06 05:58:26;;;;;;;7.43;4.73;;;7.40;34.70;9.10;99832.00;;;;5040205;28;20472;-79
2021/05/06 06:00:53;;;;;;;6.47;4.10;;;7.40;35.30;9.20;99841.00;;;;5036248;28;20519;-78
2021/05/06 06:03:21;;;;;;;4.97;3.47;;;7.60;34.50;9.40;99839.00;;;;5038004;28;20957;-78
2021/05/06 06:05:52;;;;;;;4.13;3.73;;;7.60;33.70;9.50;99843.00;;;;5038782;28;20544;-79
2021/05/06 06:08:24;;;;;;;6.17;3.97;;;7.80;33.50;9.70;99829.00;;;;5041928;28;20483;-80
2021/05/06 06:10:51;;;;;;;4.03;3.63;;;7.90;33.10;9.90;99842.00;;;;5041573;28;20456;-79
2021/05/06 06:13:19;;;;;;;8.40;3.80;;;8.10;32.80;10.10;99833.00;;;;5040852;28;20448;-79
2021/05/06 06:15:57;;;;;;;9.77;4.70;;;8.20;31.00;10.20;99841.00;;;;5051328;28;20476;-79
2021/05/06 06:18:28;;;;;;;4.50;3.70;;;8.30;30.60;10.30;99840.00;;;;5048012;28;20510;-80
2021/05/06 06:21:02;;;;;;;6.20;3.53;;;8.40;29.20;10.40;99834.00;;;;5053366;28;20448;-80
2021/05/06 06:23:30;;;;;;;7.53;3.90;;;8.40;29.10;10.50;99827.00;;;;5070345;28;20474;-78
2021/05/06 06:25:59;;;;;;;7.23;3.23;;;8.60;28.70;10.80;99835.00;;;;5056369;28;20440;-80
2021/05/06 06:28:34;;;;;;;9.43;3.33;;;8.70;28.10;10.90;99837.00;;;;5038748;28;20524;-78
2021/05/06 06:31:02;;;;;;;7.27;3.23;;;8.80;27.10;11.00;99847.00;;;;5043281;28;20468;-79
2021/05/06 06:33:30;;;;;;;6.33;3.40;;;8.90;26.40;11.00;99837.00;;;;5044220;28;20457;-81
2021/05/06 06:35:57;;;;;;;5.40;3.17;;;8.90;25.80;10.90;99831.00;;;;5055534;28;20695;-80
2021/05/06 06:38:25;;;;;;;7.50;3.70;;;9.00;24.50;10.90;99852.00;;;;5055460;28;20456;-81
2021/05/06 06:40:52;;;;;;;9.03;5.03;;;8.90;24.30;10.80;99841.00;;;;5068664;28;20460;-79
2021/05/06 06:43:20;;;;;;;6.67;3.87;;;8.80;25.20;10.70;99842.00;;;;5056143;28;20503;-79
2021/05/06 06:45:47;;;;;;;4.63;3.33;;;8.70;25.10;10.70;99836.00;;;;5054706;28;20472;-78
2021/05/06 06:48:17;;;;;;;5.63;4.70;;;8.70;26.10;10.90;99849.00;;;;5062305;28;20477;-79
2021/05/06 06:50:44;;;;;;;5.63;3.40;;;8.80;26.40;10.90;99829.00;;;;5055611;28;20456;-79
2021/05/06 06:53:14;;;;;;;5.20;3.63;;;8.90;25.00;10.80;99845.00;;;;5053069;28;20491;-80
2021/05/06 06:55:41;;;;;;;6.00;4.27;;;8.80;25.70;10.80;99851.00;;;;5071988;28;20461;-79
2021/05/06 06:58:28;;;;;;;9.40;3.63;;;8.80;25.90;10.70;99841.00;;;;5071550;28;20474;-80
2021/05/06 07:00:58;;;;;;;7.10;3.70;;;8.70;26.20;10.40;99845.00;;;;5053885;28;20477;-78
2021/05/06 07:03:26;;;;;;;7.00;3.33;;;8.60;26.40;10.30;99837.00;;;;5052454;28;20453;-79
2021/05/06 07:05:56;;;;;;;5.73;3.40;;;8.50;26.90;10.30;99856.00;;;;5045964;28;20488;-79
2021/05/06 07:08:26;;;;;;;8.70;3.67;;;8.50;26.90;10.40;99831.00;;;;5044031;28;20480;-79
2021/05/06 07:10:56;;;;;;;7.83;3.23;;;8.60;26.40;10.60;99831.00;;;;5050700;28;20460;-79
2021/05/06 07:13:25;;;;;;;7.10;3.63;;;8.70;25.70;10.50;99829.00;;;;5049439;28;20453;-79
2021/05/06 07:15:55;;;;;;;4.57;3.30;;;8.70;25.20;10.60;99831.00;;;;5043269;28;20456;-79
2021/05/06 07:18:23;;;;;;;5.37;3.40;;;8.90;25.50;10.90;99821.00;;;;5051056;28;20461;-79
2021/05/06 07:20:53;;;;;;;9.07;3.23;;;9.10;25.40;11.00;99817.00;;;;5049773;28;20457;-78
2021/05/06 07:23:22;;;;;;;5.87;2.80;;;9.20;24.50;11.30;99811.00;;;;5052469;28;20441;-79
2021/05/06 07:25:56;;;;;;;3.50;3.10;;;9.40;24.50;11.40;99802.00;;;;5067009;28;20511;-79
2021/05/06 07:28:32;;;;;;;4.27;2.93;;;9.50;23.00;11.10;99803.00;;;;5050543;28;20476;-79
2021/05/06 07:31:05;;;;;;;8.00;3.20;;;9.30;24.10;11.10;99806.00;;;;5060045;28;20459;-78
2021/05/06 07:33:36;;;;;;;7.33;4.03;;;9.30;24.50;11.20;99800.00;;;;5050418;28;20437;-79
2021/05/06 07:36:11;;;;;;;6.70;3.33;;;9.40;24.40;11.20;99804.00;;;;5041217;28;20453;-79
2021/05/06 07:38:42;;;;;;;4.73;3.00;;;9.30;25.20;11.10;99808.00;;;;5049750;28;20495;-79
2021/05/06 07:41:15;;;;;;;6.67;3.67;;;9.30;25.10;11.20;99808.00;;;;5053707;28;20528;-77
2021/05/06 07:43:46;;;;;;;9.40;3.53;;;9.30;24.70;11.20;99797.00;;;;5042506;28;20509;-79
2021/05/06 07:46:17;;;;;;;6.13;3.10;;;9.40;25.00;11.50;99794.00;;;;5055322;28;20476;-80
2021/05/06 07:48:51;;;;;;;8.17;3.37;;;9.60;24.20;11.70;99797.00;;;;5052363;28;20491;-79
2021/05/06 07:51:25;;;;;;;3.57;3.00;;;9.70;22.40;11.50;99790.00;;;;5057041;28;20480;-79
2021/05/06 07:53:57;;;;;;;4.93;2.90;;;9.70;21.10;11.30;99795.00;;;;5039735;28;20999;-77
2021/05/06 07:56:28;;;;;;;4.60;3.10;;;9.60;22.30;11.30;99804.00;;;;5042674;28;20455;-79
2021/05/06 07:58:56;;;;;;;3.80;3.27;;;9.60;22.50;11.20;99807.00;;;;5035951;28;20552;-79
2021/05/06 08:01:24;;;;;;;4.27;3.30;;;9.40;22.90;11.10;99805.00;;;;5031456;28;621271;-78
2021/05/06 08:03:53;;;;;;;6.87;3.93;;;9.30;23.50;11.00;99819.00;;;;5044588;28;20465;-79
2021/05/06 08:06:21;;;;;;;6.10;3.40;;;9.30;24.60;10.90;99802.00;;;;5043562;28;20464;-80
2021/05/06 08:08:52;;;;;;;5.40;3.63;;;9.20;24.30;11.00;99796.00;;;;5042630;28;20526;-79
2021/05/06 08:11:21;;;;;;;6.40;4.30;;;9.30;23.80;11.00;99806.00;;;;5032960;28;20463;-79
2021/05/06 08:13:48;;;;;;;7.63;3.63;;;9.30;24.10;11.10;99807.00;;;;5037974;28;20552;-79
2021/05/06 08:16:16;;;;;;;6.77;3.47;;;9.40;24.40;11.20;99798.00;;;;5041675;28;20499;-78
2021/05/06 08:18:44;;;;;;;6.40;3.70;;;9.40;23.90;11.10;99789.00;;;;5065976;28;20472;-79
2021/05/06 08:21:12;;;;;;;6.10;3.60;;;9.50;24.60;11.20;99807.00;;;;5050560;28;20457;-78
2021/05/06 08:23:40;;;;;;;5.87;3.90;;;9.50;23.70;11.30;99803.00;;;;5052581;28;20882;-80
2021/05/06 08:26:09;;;;;;;5.90;3.47;;;9.50;24.10;11.10;99802.00;;;;5050642;28;20469;-79
2021/05/06 08:28:54;;;;;;;5.90;3.80;;;9.40;24.20;11.20;99802.00;;;;5049206;28;20498;-78
2021/05/06 08:31:21;;;;;;;6.47;3.43;;;9.50;24.40;11.30;99801.00;;;;5062797;28;20858;-78
2021/05/06 08:33:49;;;;;;;6.73;3.70;;;9.50;23.90;11.30;99812.00;;;;5036692;28;20453;-78
2021/05/06 08:36:17;;;;;;;3.90;3.10;;;9.50;24.50;11.40;99803.00;;;;5065841;28;20461;-79
2021/05/06 08:38:44;;;;;;;6.97;3.90;;;9.70;23.60;11.80;99798.00;;;;5039641;28;20480;-79
2021/05/06 08:41:14;;;;;;;8.20;3.70;;;10.00;21.00;12.10;99794.00;;;;5037991;28;20516;-79
2021/05/06 08:43:47;;;;;;;5.23;4.03;;;10.20;18.90;12.20;99795.00;;;;5039851;28;20469;-79
2021/05/06 08:46:17;;;;;;;5.13;3.73;;;10.20;18.00;12.30;99795.00;;;;5037443;28;20441;-80
2021/05/06 08:49:03;;;;;;;7.17;4.30;;;10.40;18.20;12.60;99810.00;;;;5032555;28;20477;-80
2021/05/06 08:51:31;;;;;;;5.40;3.70;;;10.50;17.60;12.80;99797.00;;;;5065246;28;21030;-80
2021/05/06 08:53:59;;;;;;;4.20;3.33;;;10.70;16.30;12.80;99801.00;;;;5034247;28;20449;-80
2021/05/06 08:56:28;;;;;;;7.03;3.43;;;10.70;15.80;12.60;99793.00;;;;5040661;28;20465;-80
2021/05/06 08:58:56;;;;;;;5.13;3.37;;;10.70;15.90;12.70;99799.00;;;;5045982;28;20480;-80
2021/05/06 09:01:24;;;;;;;4.37;3.60;;;10.70;15.60;12.70;99794.00;;;;5041208;28;20472;-80
2021/05/06 09:03:51;;;;;;;4.83;3.70;;;10.70;15.00;12.70;99790.00;;;;5043181;28;20489;-79
2021/05/06 09:06:20;;;;;;;6.50;3.33;;;10.60;15.80;12.50;99809.00;;;;5033369;28;20453;-80
2021/05/06 09:08:52;;;;;;;4.97;3.40;;;10.50;16.10;12.30;99791.00;;;;5042133;28;20500;-79
2021/05/06 09:11:31;;;;;;;3.77;3.13;;;10.40;17.10;12.10;99795.00;;;;5038756;28;20452;-79
2021/05/06 09:14:04;;;;;;;6.00;3.93;;;10.20;16.00;12.00;99807.00;;;;5050597;28;20453;-79
2021/05/06 09:16:36;;;;;;;5.50;3.30;;;10.20;16.50;12.10;99789.00;;;;5025830;28;21058;-80
2021/05/06 09:19:09;;;;;;;5.93;3.60;;;10.30;16.70;12.10;99794.00;;;;5033852;28;20484;-79
2021/05/06 09:21:40;;;;;;;5.60;3.60;;;10.20;17.40;11.80;99792.00;;;;5036172;28;20455;-78
2021/05/06 09:24:16;;;;;;;5.33;3.13;;;10.20;17.50;11.70;99791.00;;;;5040664;28;20460;-80
2021/05/06 09:26:45;;;;;;;6.10;3.40;;;9.90;19.10;11.90;99795.00;;;;5056598;28;20455;-79
2021/05/06 09:29:31;;;;;;;5.07;4.13;;;10.10;17.90;12.70;99777.00;;;;5043998;28;20599;-79
2021/05/06 09:32:19;;;;;;;13.93;3.60;;;10.50;16.70;13.00;99788.00;;;;5045592;28;20437;-80
2021/05/06 09:34:52;;;;;;;6.70;3.50;;;10.90;15.40;13.30;99786.00;;;;5041771;28;20453;-79
2021/05/06 09:37:25;;;;;;;6.60;3.33;;;11.10;15.00;13.80;99795.00;;;;5044359;28;20504;-79
2021/05/06 09:39:58;;;;;;;8.97;4.00;;;11.40;14.10;14.00;99775.00;;;;5049927;28;20444;-79
2021/05/06 09:42:38;;;;;;;7.90;3.73;;;11.70;12.20;14.10;99776.00;;;;5053290;28;20504;-80
2021/05/06 09:45:08;;;;;;;4.80;3.37;;;11.80;11.50;14.10;99761.00;;;;5054825;28;20471;-80
2021/05/06 09:47:36;;;;;;;5.40;3.60;;;11.80;9.70;14.20;99770.00;;;;5060653;28;20492;-81
2021/05/06 09:50:05;;;;;;;5.53;4.10;;;11.90;10.00;14.30;99774.00;;;;5070288;28;20476;-80
2021/05/06 09:52:54;;;;;;;4.40;3.50;;;12.00;8.40;14.40;99765.00;;;;5051816;28;20462;-80
2021/05/06 09:55:23;;;;;;;4.67;3.60;;;12.20;8.30;14.70;99753.00;;;;5051153;28;20457;-80
2021/05/06 09:57:52;;;;;;;8.63;4.10;;;12.50;7.40;14.60;99755.00;;;;5052881;28;20814;-81
2021/05/06 10:00:21;;;;;;;4.90;3.70;;;12.50;6.70;14.50;99757.00;;;;5042160;28;20457;-79
2021/05/06 10:02:49;;;;;;;6.47;4.00;;;12.50;6.10;14.50;99754.00;;;;5039719;28;20517;-79
2021/05/06 10:05:37;;;;;;;5.27;3.50;;;12.60;6.00;14.40;99744.00;;;;5059888;28;20488;-79
2021/05/06 10:08:05;;;;;;;7.03;3.57;;;12.70;5.90;14.30;99738.00;;;;5036351;28;20484;-80
2021/05/06 10:10:35;;;;;;;4.77;3.87;;;12.70;4.90;14.30;99746.00;;;;5047816;28;20528;-79
2021/05/06 10:13:05;;;;;;;6.83;3.90;;;12.80;4.90;14.40;99747.00;;;;5045475;28;20533;-78
2021/05/06 10:15:33;;;;;;;4.60;3.93;;;12.90;4.00;14.70;99747.00;;;;5030612;28;20460;-78
2021/05/06 10:18:00;;;;;;;5.20;4.20;;;13.30;3.40;15.10;99747.00;;;;5035330;28;20480;-79
2021/05/06 10:20:29;;;;;;;3.90;3.30;;;13.60;1.00;15.30;99738.00;;;;5037734;28;21193;-78
2021/05/06 10:22:58;;;;;;;4.10;3.60;;;13.90;1.00;15.70;99723.00;;;;5053116;28;20512;-79
2021/05/06 10:25:26;;;;;;;7.53;4.07;;;14.00;1.00;15.80;99744.00;;;;5034474;28;20464;-77
2021/05/06 10:27:55;;;;;;;4.57;3.67;;;14.00;1.00;15.70;99722.00;;;;5031606;28;20473;-77
2021/05/06 10:30:24;;;;;;;5.57;3.90;;;13.90;1.00;16.00;99725.00;;;;5031364;28;20459;-77
2021/05/06 10:32:52;;;;;;;4.87;3.53;;;14.00;1.00;16.20;99732.00;;;;5025442;28;20500;-79
2021/05/06 10:35:25;;;;;;;7.43;3.47;;;14.00;1.00;16.40;99718.00;;;;5034824;28;20548;-79
2021/05/06 10:37:57;;;;;;;3.90;3.20;;;13.90;1.00;16.30;99711.00;;;;5033387;28;20484;-77
2021/05/06 10:40:29;;;;;;;6.43;3.87;;;13.90;1.00;16.40;99707.00;;;;5022213;28;20461;-77
2021/05/06 10:43:24;;;;;;;5.77;4.07;;;14.00;1.00;16.40;99705.00;;;;5034105;28;20451;-77
2021/05/06 10:45:58;;;;;;;4.20;3.27;;;14.10;1.00;16.70;99694.00;;;;5026123;28;20460;-78
2021/05/06 10:48:59;;;;;;;4.60;3.13;;;14.30;1.00;16.90;99704.00;;;;5046436;28;20482;-78
2021/05/06 10:51:41;;;;;;;4.80;4.13;;;14.50;1.00;16.80;99689.00;;;;5036943;28;20870;-77
2021/05/06 10:54:33;;;;;;;5.47;3.57;;;14.40;1.00;16.90;99691.00;;;;5035168;28;20861;-78
2021/05/06 10:57:03;;;;;;;4.70;3.70;;;14.40;1.00;17.10;99681.00;;;;5041765;28;20509;-77
2021/05/06 10:59:38;;;;;;;14.73;3.57;;;14.50;1.00;16.90;99675.00;;;;5050286;28;20444;-78
2021/05/06 11:02:06;;;;;;;3.33;3.03;;;14.40;1.00;17.10;99667.00;;;;5049989;28;20450;-77
2021/05/06 11:04:37;;;;;;;3.90;2.97;;;14.70;1.00;17.10;99668.00;;;;5050687;28;20453;-78
2021/05/06 11:07:18;;;;;;;4.13;3.60;;;14.70;1.00;17.10;99670.00;;;;5059469;28;20443;-80
2021/05/06 11:09:58;;;;;;;6.17;3.40;;;14.80;1.00;16.90;99658.00;;;;5053978;28;20560;-78
2021/05/06 11:12:33;;;;;;;3.37;3.07;;;14.50;1.00;17.10;99669.00;;;;5067918;28;20437;-78
2021/05/06 11:15:30;;;;;;;5.47;3.30;;;14.60;1.00;17.00;99646.00;;;;5055110;28;20489;-78
2021/05/06 11:18:02;;;;;;;5.07;3.10;;;14.70;1.00;17.40;99651.00;;;;5054654;28;20485;-79
2021/05/06 11:20:55;;;;;;;4.50;2.57;;;15.10;1.00;17.80;99648.00;;;;5055136;28;20519;-78
2021/05/06 11:23:31;;;;;;;4.47;2.70;;;15.70;1.00;17.60;99637.00;;;;5046027;28;20465;-78
2021/05/06 11:26:11;;;;;;;4.83;2.83;;;15.40;1.00;217.30;164512.00;;;;5053519;28;20464;-79
2021/05/06 11:28:50;;;;;;;4.67;3.23;;;15.70;1.00;18.40;99650.00;;;;5058022;28;20476;-79
2021/05/06 11:31:50;;;;;;;5.47;3.07;;;16.00;1.00;17.90;99648.00;;;;5043944;28;20475;-77
2021/05/06 11:34:41;;;;;;;5.90;3.73;;;15.70;1.00;18.00;99637.00;;;;5030085;28;21047;-77
2021/05/06 11:37:18;;;;;;;5.23;3.00;;;15.70;1.00;17.50;99636.00;;;;5039413;28;20473;-78
2021/05/06 11:40:11;;;;;;;4.50;2.40;;;15.40;1.00;17.40;99630.00;;;;5044243;28;20520;-78
2021/05/06 11:42:42;;;;;;;4.13;2.50;;;15.30;1.00;18.00;99619.00;;;;5052597;28;20445;-78
2021/05/06 11:45:21;;;;;;;4.17;2.80;;;15.80;1.00;18.10;99631.00;;;;5053031;28;20448;-79
2021/05/06 11:47:51;;;;;;;4.63;3.40;;;15.80;1.00;17.40;99629.00;;;;5055420;28;20467;-79
2021/05/06 11:50:31;;;;;;;4.23;3.23;;;15.10;1.00;16.50;99614.00;;;;5042795;28;20484;-77
2021/05/06 11:53:01;;;;;;;7.00;3.27;;;14.40;1.00;15.90;99611.00;;;;5041283;28;20452;-78
2021/05/06 11:55:41;;;;;;;5.17;3.00;;;13.90;1.00;15.60;99605.00;;;;5041904;28;20445;-77
2021/05/06 11:58:10;;;;;;;4.43;2.90;;;13.60;1.00;15.40;99593.00;;;;5038889;28;20495;-77
2021/05/06 12:00:40;;;;;;;6.17;3.30;;;13.30;1.00;15.50;99604.00;;;;5047561;28;20824;-78
2021/05/06 12:03:10;;;;;;;5.47;3.10;;;13.40;1.00;15.20;99607.00;;;;5041874;28;20453;-78
2021/05/06 12:05:55;;;;;;;8.43;3.70;;;13.20;1.00;14.70;99603.00;;;;5043864;28;20448;-78
2021/05/06 12:08:26;;;;;;;3.93;3.50;;;12.80;1.00;14.40;99609.00;;;;5038959;28;20489;-78
2021/05/06 12:11:00;;;;;;;3.53;3.23;;;12.50;1.00;14.20;99608.00;;;;5043582;28;20472;-79
2021/05/06 12:13:31;;;;;;;5.53;3.60;;;12.30;1.00;13.90;99604.00;;;;5049844;28;20465;-80
2021/05/06 12:16:18;;;;;;;4.50;3.30;;;12.20;1.00;13.70;99606.00;;;;5054268;28;20453;-79
2021/05/06 12:19:05;;;;;;;4.50;3.00;;;12.00;1.00;13.60;99599.00;;;;5043288;28;20480;-78
2021/05/06 12:21:44;;;;;;;5.37;3.47;;;11.90;1.00;13.50;99572.00;;;;5052687;28;20455;-79
2021/05/06 12:24:19;;;;;;;3.80;3.40;;;11.80;1.00;13.50;99577.00;;;;5053449;28;20457;-79
2021/05/06 12:26:47;;;;;;;8.00;3.60;;;11.80;1.00;13.50;99572.00;;;;5059161;28;20953;-78
2021/05/06 12:29:23;;;;;;;4.97;3.30;;;11.80;1.00;13.70;99577.00;;;;5042534;28;20480;-79
2021/05/06 12:31:53;;;;;;;4.03;2.93;;;11.90;1.00;13.70;99555.00;;;;5041643;28;20881;-79
2021/05/06 12:34:24;;;;;;;5.30;3.20;;;12.00;1.00;13.80;99545.00;;;;5040890;28;20457;-79
2021/05/06 12:36:57;;;;;;;4.80;3.43;;;12.00;1.00;13.80;99548.00;;;;5040665;28;20453;-79
2021/05/06 12:39:25;;;;;;;5.53;3.30;;;12.00;1.00;13.70;99544.00;;;;5035770;28;20453;-78
2021/05/06 12:41:56;;;;;;;3.77;3.40;;;12.00;1.00;13.80;99536.00;;;;5038056;28;20572;-79
2021/05/06 12:44:43;;;;;;;6.13;3.80;;;12.00;1.00;13.80;99543.00;;;;5051959;28;20446;-77
2021/05/06 12:47:17;;;;;;;3.70;2.80;;;12.00;1.00;13.70;99550.00;;;;5054697;28;20507;-79
2021/05/06 12:49:47;;;;;;;3.87;3.47;;;11.90;1.00;13.60;99543.00;;;;5045295;28;20985;-78
2021/05/06 12:52:36;;;;;;;6.10;3.40;;;11.90;1.00;13.40;99548.00;;;;5031467;28;20476;-78
2021/05/06 12:55:18;;;;;;;3.57;3.27;;;11.80;1.00;13.30;99553.00;;;;5031951;28;20457;-78
2021/05/06 12:57:47;;;;;;;4.03;3.30;;;11.70;1.00;13.40;99540.00;;;;5047306;28;20508;-78
2021/05/06 13:00:21;;;;;;;7.33;2.70;;;11.70;1.00;217.30;162547.00;;;;5051838;28;20514;-78
2021/05/06 13:02:48;;;;;;;4.17;3.60;;;11.80;1.00;13.80;99531.00;;;;5048431;28;20515;-78
2021/05/06 13:05:31;;;;;;;6.20;3.57;;;12.00;1.00;14.10;99517.00;;;;5033883;28;20449;-78
2021/05/06 13:08:00;;;;;;;4.13;3.60;;;12.20;1.00;14.20;99528.00;;;;5036793;28;20457;-79
2021/05/06 13:10:34;;;;;;;5.13;3.47;;;12.40;1.00;14.30;99502.00;;;;5034567;28;20487;-79
2021/05/06 13:13:05;;;;;;;4.83;4.33;;;12.40;1.00;14.20;99510.00;;;;5035261;28;20460;-78
2021/05/06 13:15:47;;;;;;;4.10;3.70;;;12.40;1.00;14.10;99505.00;;;;5031683;28;20490;-79
2021/05/06 13:18:14;;;;;;;5.03;3.97;;;12.40;1.00;14.00;99494.00;;;;5058298;28;20473;-78
2021/05/06 13:20:43;;;;;;;4.23;3.33;;;12.30;1.00;13.90;99489.00;;;;5022939;28;20460;-78
2021/05/06 13:23:13;;;;;;;3.37;3.07;;;12.20;1.00;14.00;99483.00;;;;5035405;28;20960;-79
2021/05/06 13:25:47;;;;;;;5.60;3.70;;;12.30;1.00;14.10;99490.00;;;;5048569;28;20449;-78
2021/05/06 13:28:17;;;;;;;4.10;3.70;;;12.30;1.00;13.90;99487.00;;;;5043101;28;20464;-78
2021/05/06 13:30:47;;;;;;;4.23;3.60;;;12.20;1.00;13.90;99484.00;;;;5039397;28;20456;-78
2021/05/06 13:33:18;;;;;;;5.07;3.83;;;12.20;1.00;13.90;99480.00;;;;5037899;28;20449;-78
2021/05/06 13:36:04;;;;;;;4.37;3.83;;;12.10;1.00;14.00;99473.00;;;;5039728;28;20452;-80
2021/05/06 13:39:04;;;;;;;7.53;3.73;;;12.20;1.60;14.10;99473.00;;;;5035389;28;20535;-78
2021/05/06 13:41:35;;;;;;;5.00;4.10;;;12.20;1.70;13.80;99491.00;;;;4979445;28;21087;-80
2021/05/06 13:44:06;;;;;;;3.73;3.43;;;12.10;1.90;13.60;99483.00;;;;5019891;28;20483;-80
2021/05/06 13:46:42;;;;;;;4.67;4.20;;;11.90;4.40;13.60;99461.00;;;;5050304;28;20464;-81
2021/05/06 13:49:12;;;;;;;5.10;4.23;;;11.90;7.60;217.30;162547.00;;;;5063635;28;20510;-80
2021/05/06 13:51:39;;;;;;;4.40;4.00;;;11.80;9.70;13.40;99461.00;;;;5052528;28;20442;-79